sensor_id;sensor_type;location;lat;lon;timestamp;P1;durP1;ratioP1;P2;durP2;ratioP2
25950;SDS011;13748;52.240;6.002;2022-10-16T00:01:34;4.33;;;2.63;;
25950;SDS011;13748;52.240;6.002;2022-10-16T00:04:02;6.50;;;2.90;;
25950;SDS011;13748;52.240;6.002;2022-10-16T00:06:30;6.47;;;2.97;;
25950;SDS011;13748;52.240;6.002;2022-10-16T00:08:57;6.53;;;2.90;;
25950;SDS011;13748;52.240;6.002;2022-10-16T00:11:28;8.40;;;3.30;;
25950;SDS011;13748;52.240;6.002;2022-10-16T00:14:00;8.53;;;3.10;;
25950;SDS011;13748;52.240;6.002;2022-10-16T00:16:30;4.83;;;2.70;;
25950;SDS011;13748;52.240;6.002;2022-10-16T00:18:57;5.17;;;2.67;;
25950;SDS011;13748;52.240;6.002;2022-10-16T00:21:25;12.70;;;2.90;;
25950;SDS011;13748;52.240;6.002;2022-10-16T00:23:54;4.60;;;2.70;;
25950;SDS011;13748;52.240;6.002;2022-10-16T00:26:26;7.97;;;2.73;;
25950;SDS011;13748;52.240;6.002;2022-10-16T00:28:57;11.00;;;3.33;;
25950;SDS011;13748;52.240;6.002;2022-10-16T00:31:25;8.97;;;3.30;;
25950;SDS011;13748;52.240;6.002;2022-10-16T00:34:00;5.23;;;2.83;;
25950;SDS011;13748;52.240;6.002;2022-10-16T00:36:29;7.73;;;3.30;;
25950;SDS011;13748;52.240;6.002;2022-10-16T00:38:58;6.07;;;3.20;;
25950;SDS011;13748;52.240;6.002;2022-10-16T00:41:27;7.07;;;3.13;;
25950;SDS011;13748;52.240;6.002;2022-10-16T00:44:01;4.67;;;3.00;;
25950;SDS011;13748;52.240;6.002;2022-10-16T00:54:11;6.30;;;3.50;;
25950;SDS011;13748;52.240;6.002;2022-10-16T00:56:43;5.63;;;2.60;;
25950;SDS011;13748;52.240;6.002;2022-10-16T00:59:22;6.93;;;3.77;;
25950;SDS011;13748;52.240;6.002;2022-10-16T01:01:51;4.40;;;2.97;;
25950;SDS011;13748;52.240;6.002;2022-10-16T01:04:19;5.47;;;2.70;;
25950;SDS011;13748;52.240;6.002;2022-10-16T01:18:15;7.10;;;3.30;;
25950;SDS011;13748;52.240;6.002;2022-10-16T01:25:59;9.37;;;3.37;;
25950;SDS011;13748;52.240;6.002;2022-10-16T01:31:11;6.30;;;4.20;;
25950;SDS011;13748;52.240;6.002;2022-10-16T01:33:44;6.53;;;4.07;;
25950;SDS011;13748;52.240;6.002;2022-10-16T01:36:19;6.73;;;3.57;;
25950;SDS011;13748;52.240;6.002;2022-10-16T01:38:51;6.93;;;3.20;;
25950;SDS011;13748;52.240;6.002;2022-10-16T01:41:24;5.37;;;3.07;;
25950;SDS011;13748;52.240;6.002;2022-10-16T01:46:30;6.37;;;3.10;;
25950;SDS011;13748;52.240;6.002;2022-10-16T01:48:59;5.10;;;3.30;;
25950;SDS011;13748;52.240;6.002;2022-10-16T01:51:28;4.77;;;3.07;;
25950;SDS011;13748;52.240;6.002;2022-10-16T01:53:56;7.70;;;3.27;;
25950;SDS011;13748;52.240;6.002;2022-10-16T01:56:26;7.23;;;3.03;;
25950;SDS011;13748;52.240;6.002;2022-10-16T01:59:01;6.03;;;3.10;;
25950;SDS011;13748;52.240;6.002;2022-10-16T02:01:33;4.97;;;3.60;;
25950;SDS011;13748;52.240;6.002;2022-10-16T02:04:08;5.10;;;3.00;;
25950;SDS011;13748;52.240;6.002;2022-10-16T02:06:43;5.10;;;2.80;;
25950;SDS011;13748;52.240;6.002;2022-10-16T02:09:10;7.53;;;3.27;;
25950;SDS011;13748;52.240;6.002;2022-10-16T02:11:37;4.50;;;3.30;;
25950;SDS011;13748;52.240;6.002;2022-10-16T02:14:05;6.30;;;3.40;;
25950;SDS011;13748;52.240;6.002;2022-10-16T02:16:40;5.40;;;3.43;;
25950;SDS011;13748;52.240;6.002;2022-10-16T02:19:08;5.10;;;3.97;;
25950;SDS011;13748;52.240;6.002;2022-10-16T02:24:24;8.37;;;3.03;;
25950;SDS011;13748;52.240;6.002;2022-10-16T02:27:16;4.43;;;3.20;;
25950;SDS011;13748;52.240;6.002;2022-10-16T02:29:49;6.57;;;3.30;;
25950;SDS011;13748;52.240;6.002;2022-10-16T02:32:26;6.07;;;2.97;;
25950;SDS011;13748;52.240;6.002;2022-10-16T02:34:57;5.40;;;3.37;;
25950;SDS011;13748;52.240;6.002;2022-10-16T02:37:25;5.80;;;3.60;;
25950;SDS011;13748;52.240;6.002;2022-10-16T02:39:54;6.27;;;3.33;;
25950;SDS011;13748;52.240;6.002;2022-10-16T02:42:27;5.40;;;3.47;;
25950;SDS011;13748;52.240;6.002;2022-10-16T02:45:02;6.83;;;3.90;;
25950;SDS011;13748;52.240;6.002;2022-10-16T02:47:31;12.40;;;4.10;;
25950;SDS011;13748;52.240;6.002;2022-10-16T02:50:01;5.70;;;3.70;;
25950;SDS011;13748;52.240;6.002;2022-10-16T02:52:28;7.83;;;3.47;;
25950;SDS011;13748;52.240;6.002;2022-10-16T02:54:55;5.77;;;3.80;;
25950;SDS011;13748;52.240;6.002;2022-10-16T02:57:22;6.90;;;3.70;;
25950;SDS011;13748;52.240;6.002;2022-10-16T02:59:49;5.27;;;3.63;;
25950;SDS011;13748;52.240;6.002;2022-10-16T03:02:16;5.67;;;4.13;;
25950;SDS011;13748;52.240;6.002;2022-10-16T03:04:45;6.33;;;3.70;;
25950;SDS011;13748;52.240;6.002;2022-10-16T03:07:12;5.20;;;3.63;;
25950;SDS011;13748;52.240;6.002;2022-10-16T03:09:39;4.70;;;3.17;;
25950;SDS011;13748;52.240;6.002;2022-10-16T03:12:06;5.20;;;3.60;;
25950;SDS011;13748;52.240;6.002;2022-10-16T03:14:33;6.30;;;3.50;;
25950;SDS011;13748;52.240;6.002;2022-10-16T03:17:00;5.87;;;3.60;;
25950;SDS011;13748;52.240;6.002;2022-10-16T03:19:27;7.47;;;3.23;;
25950;SDS011;13748;52.240;6.002;2022-10-16T03:21:54;6.80;;;3.47;;
25950;SDS011;13748;52.240;6.002;2022-10-16T03:24:20;5.10;;;3.87;;
25950;SDS011;13748;52.240;6.002;2022-10-16T03:26:48;4.23;;;3.33;;
25950;SDS011;13748;52.240;6.002;2022-10-16T03:29:16;7.97;;;4.63;;
25950;SDS011;13748;52.240;6.002;2022-10-16T03:31:42;6.20;;;3.57;;
25950;SDS011;13748;52.240;6.002;2022-10-16T03:34:09;5.50;;;3.27;;
25950;SDS011;13748;52.240;6.002;2022-10-16T03:36:36;5.97;;;3.47;;
25950;SDS011;13748;52.240;6.002;2022-10-16T03:39:03;4.10;;;3.33;;
25950;SDS011;13748;52.240;6.002;2022-10-16T03:41:29;5.47;;;3.80;;
25950;SDS011;13748;52.240;6.002;2022-10-16T03:43:56;4.07;;;3.60;;
25950;SDS011;13748;52.240;6.002;2022-10-16T03:46:23;7.63;;;3.57;;
25950;SDS011;13748;52.240;6.002;2022-10-16T03:48:50;5.57;;;3.60;;
25950;SDS011;13748;52.240;6.002;2022-10-16T03:51:17;4.93;;;3.60;;
25950;SDS011;13748;52.240;6.002;2022-10-16T03:53:44;7.23;;;3.53;;
25950;SDS011;13748;52.240;6.002;2022-10-16T03:56:11;5.70;;;3.40;;
25950;SDS011;13748;52.240;6.002;2022-10-16T03:58:38;5.83;;;3.30;;
25950;SDS011;13748;52.240;6.002;2022-10-16T04:01:04;6.63;;;3.30;;
25950;SDS011;13748;52.240;6.002;2022-10-16T04:03:31;4.97;;;3.40;;
25950;SDS011;13748;52.240;6.002;2022-10-16T04:05:58;3.93;;;3.33;;
25950;SDS011;13748;52.240;6.002;2022-10-16T04:08:25;5.57;;;3.93;;
25950;SDS011;13748;52.240;6.002;2022-10-16T04:10:52;5.63;;;3.50;;
25950;SDS011;13748;52.240;6.002;2022-10-16T04:13:19;6.53;;;3.80;;
25950;SDS011;13748;52.240;6.002;2022-10-16T04:15:46;5.47;;;4.00;;
25950;SDS011;13748;52.240;6.002;2022-10-16T04:18:13;4.30;;;3.07;;
25950;SDS011;13748;52.240;6.002;2022-10-16T04:20:40;9.20;;;3.40;;
25950;SDS011;13748;52.240;6.002;2022-10-16T04:23:07;3.73;;;3.17;;
25950;SDS011;13748;52.240;6.002;2022-10-16T04:25:34;5.13;;;3.13;;
25950;SDS011;13748;52.240;6.002;2022-10-16T04:28:02;6.77;;;3.00;;
25950;SDS011;13748;52.240;6.002;2022-10-16T04:30:29;5.47;;;2.67;;
25950;SDS011;13748;52.240;6.002;2022-10-16T04:32:56;4.47;;;3.40;;
25950;SDS011;13748;52.240;6.002;2022-10-16T04:35:23;5.50;;;3.07;;
25950;SDS011;13748;52.240;6.002;2022-10-16T04:37:50;4.03;;;2.83;;
25950;SDS011;13748;52.240;6.002;2022-10-16T04:40:16;4.90;;;3.07;;
25950;SDS011;13748;52.240;6.002;2022-10-16T04:42:44;3.97;;;2.63;;
25950;SDS011;13748;52.240;6.002;2022-10-16T04:45:11;5.50;;;2.80;;
25950;SDS011;13748;52.240;6.002;2022-10-16T04:47:42;3.97;;;2.70;;
25950;SDS011;13748;52.240;6.002;2022-10-16T04:50:09;4.53;;;3.17;;
25950;SDS011;13748;52.240;6.002;2022-10-16T04:52:39;5.47;;;2.73;;
25950;SDS011;13748;52.240;6.002;2022-10-16T04:55:06;4.47;;;2.70;;
25950;SDS011;13748;52.240;6.002;2022-10-16T04:57:33;8.23;;;3.03;;
25950;SDS011;13748;52.240;6.002;2022-10-16T05:00:00;4.93;;;2.83;;
25950;SDS011;13748;52.240;6.002;2022-10-16T05:02:27;4.27;;;2.80;;
25950;SDS011;13748;52.240;6.002;2022-10-16T05:04:54;3.97;;;3.23;;
25950;SDS011;13748;52.240;6.002;2022-10-16T05:07:21;4.67;;;2.60;;
25950;SDS011;13748;52.240;6.002;2022-10-16T05:09:48;4.67;;;2.80;;
25950;SDS011;13748;52.240;6.002;2022-10-16T05:12:15;4.80;;;3.30;;
25950;SDS011;13748;52.240;6.002;2022-10-16T05:14:42;3.60;;;2.50;;
25950;SDS011;13748;52.240;6.002;2022-10-16T05:17:09;5.17;;;2.53;;
25950;SDS011;13748;52.240;6.002;2022-10-16T05:19:36;4.80;;;2.90;;
25950;SDS011;13748;52.240;6.002;2022-10-16T05:22:03;6.17;;;3.10;;
25950;SDS011;13748;52.240;6.002;2022-10-16T05:24:30;4.13;;;2.60;;
25950;SDS011;13748;52.240;6.002;2022-10-16T05:26:56;3.20;;;2.63;;
25950;SDS011;13748;52.240;6.002;2022-10-16T05:29:23;6.10;;;3.10;;
25950;SDS011;13748;52.240;6.002;2022-10-16T05:31:51;8.63;;;2.77;;
25950;SDS011;13748;52.240;6.002;2022-10-16T05:34:19;4.77;;;3.10;;
25950;SDS011;13748;52.240;6.002;2022-10-16T05:36:46;4.23;;;2.83;;
25950;SDS011;13748;52.240;6.002;2022-10-16T05:39:14;5.27;;;3.17;;
25950;SDS011;13748;52.240;6.002;2022-10-16T05:41:41;5.13;;;3.17;;
25950;SDS011;13748;52.240;6.002;2022-10-16T05:44:09;8.67;;;3.10;;
25950;SDS011;13748;52.240;6.002;2022-10-16T05:46:36;7.97;;;3.57;;
25950;SDS011;13748;52.240;6.002;2022-10-16T05:49:03;6.93;;;3.50;;
25950;SDS011;13748;52.240;6.002;2022-10-16T05:51:30;4.67;;;2.97;;
25950;SDS011;13748;52.240;6.002;2022-10-16T05:53:57;5.57;;;3.40;;
25950;SDS011;13748;52.240;6.002;2022-10-16T05:56:24;5.83;;;3.53;;
25950;SDS011;13748;52.240;6.002;2022-10-16T05:58:51;6.73;;;3.70;;
25950;SDS011;13748;52.240;6.002;2022-10-16T06:01:18;8.80;;;3.47;;
25950;SDS011;13748;52.240;6.002;2022-10-16T06:03:47;10.23;;;3.90;;
25950;SDS011;13748;52.240;6.002;2022-10-16T06:06:14;5.47;;;4.00;;
25950;SDS011;13748;52.240;6.002;2022-10-16T06:08:43;5.67;;;3.67;;
25950;SDS011;13748;52.240;6.002;2022-10-16T06:11:15;5.60;;;3.40;;
25950;SDS011;13748;52.240;6.002;2022-10-16T06:13:50;6.80;;;3.50;;
25950;SDS011;13748;52.240;6.002;2022-10-16T06:16:17;6.50;;;4.13;;
25950;SDS011;13748;52.240;6.002;2022-10-16T06:18:45;7.47;;;4.37;;
25950;SDS011;13748;52.240;6.002;2022-10-16T06:21:20;9.63;;;4.23;;
25950;SDS011;13748;52.240;6.002;2022-10-16T06:23:51;8.37;;;4.20;;
25950;SDS011;13748;52.240;6.002;2022-10-16T06:26:19;6.83;;;3.93;;
25950;SDS011;13748;52.240;6.002;2022-10-16T06:28:47;7.27;;;4.50;;
25950;SDS011;13748;52.240;6.002;2022-10-16T06:31:15;7.93;;;3.97;;
25950;SDS011;13748;52.240;6.002;2022-10-16T06:33:43;5.60;;;3.37;;
25950;SDS011;13748;52.240;6.002;2022-10-16T06:36:14;5.23;;;3.63;;
25950;SDS011;13748;52.240;6.002;2022-10-16T06:38:43;5.40;;;3.90;;
25950;SDS011;13748;52.240;6.002;2022-10-16T06:41:14;7.53;;;3.67;;
25950;SDS011;13748;52.240;6.002;2022-10-16T06:43:43;7.10;;;3.40;;
25950;SDS011;13748;52.240;6.002;2022-10-16T06:46:13;4.90;;;4.00;;
25950;SDS011;13748;52.240;6.002;2022-10-16T06:48:42;6.27;;;3.60;;
25950;SDS011;13748;52.240;6.002;2022-10-16T06:51:20;5.30;;;3.50;;
25950;SDS011;13748;52.240;6.002;2022-10-16T06:53:49;6.07;;;3.70;;
25950;SDS011;13748;52.240;6.002;2022-10-16T06:56:29;10.80;;;4.63;;
25950;SDS011;13748;52.240;6.002;2022-10-16T06:58:59;7.47;;;3.47;;
25950;SDS011;13748;52.240;6.002;2022-10-16T07:01:26;3.47;;;3.17;;
25950;SDS011;13748;52.240;6.002;2022-10-16T07:03:53;5.80;;;3.33;;
25950;SDS011;13748;52.240;6.002;2022-10-16T07:06:21;6.20;;;3.67;;
25950;SDS011;13748;52.240;6.002;2022-10-16T07:08:49;8.30;;;4.17;;
25950;SDS011;13748;52.240;6.002;2022-10-16T07:11:17;5.97;;;4.17;;
25950;SDS011;13748;52.240;6.002;2022-10-16T07:13:46;6.27;;;3.63;;
25950;SDS011;13748;52.240;6.002;2022-10-16T07:16:21;7.03;;;3.40;;
25950;SDS011;13748;52.240;6.002;2022-10-16T07:18:49;6.53;;;4.23;;
25950;SDS011;13748;52.240;6.002;2022-10-16T07:21:21;6.13;;;3.73;;
25950;SDS011;13748;52.240;6.002;2022-10-16T07:23:52;7.87;;;3.57;;
25950;SDS011;13748;52.240;6.002;2022-10-16T07:26:21;5.47;;;3.07;;
25950;SDS011;13748;52.240;6.002;2022-10-16T07:28:48;6.40;;;3.70;;
25950;SDS011;13748;52.240;6.002;2022-10-16T07:31:16;4.27;;;3.40;;
25950;SDS011;13748;52.240;6.002;2022-10-16T07:33:45;8.27;;;4.03;;
25950;SDS011;13748;52.240;6.002;2022-10-16T07:36:14;9.20;;;3.93;;
25950;SDS011;13748;52.240;6.002;2022-10-16T07:38:45;6.17;;;3.30;;
25950;SDS011;13748;52.240;6.002;2022-10-16T07:41:13;5.43;;;3.53;;
25950;SDS011;13748;52.240;6.002;2022-10-16T07:43:46;5.63;;;3.87;;
25950;SDS011;13748;52.240;6.002;2022-10-16T07:46:15;5.07;;;3.27;;
25950;SDS011;13748;52.240;6.002;2022-10-16T07:48:42;6.77;;;3.67;;
25950;SDS011;13748;52.240;6.002;2022-10-16T07:51:14;4.97;;;3.63;;
25950;SDS011;13748;52.240;6.002;2022-10-16T07:53:43;4.90;;;2.87;;
25950;SDS011;13748;52.240;6.002;2022-10-16T07:56:10;3.97;;;3.30;;
25950;SDS011;13748;52.240;6.002;2022-10-16T07:58:38;5.47;;;3.10;;
25950;SDS011;13748;52.240;6.002;2022-10-16T08:01:07;5.90;;;3.03;;
25950;SDS011;13748;52.240;6.002;2022-10-16T08:03:36;7.37;;;3.07;;
25950;SDS011;13748;52.240;6.002;2022-10-16T08:06:04;3.63;;;2.77;;
25950;SDS011;13748;52.240;6.002;2022-10-16T08:08:33;3.83;;;2.67;;
25950;SDS011;13748;52.240;6.002;2022-10-16T08:10:59;4.87;;;2.63;;
25950;SDS011;13748;52.240;6.002;2022-10-16T08:13:26;4.33;;;2.40;;
25950;SDS011;13748;52.240;6.002;2022-10-16T08:15:54;5.27;;;2.73;;
25950;SDS011;13748;52.240;6.002;2022-10-16T08:18:21;4.23;;;2.30;;
25950;SDS011;13748;52.240;6.002;2022-10-16T08:20:54;4.90;;;2.40;;
25950;SDS011;13748;52.240;6.002;2022-10-16T08:23:24;2.80;;;2.50;;
25950;SDS011;13748;52.240;6.002;2022-10-16T08:25:53;4.13;;;2.77;;
25950;SDS011;13748;52.240;6.002;2022-10-16T08:28:21;5.90;;;2.70;;
25950;SDS011;13748;52.240;6.002;2022-10-16T08:30:49;6.30;;;3.00;;
25950;SDS011;13748;52.240;6.002;2022-10-16T08:33:16;7.57;;;3.27;;
25950;SDS011;13748;52.240;6.002;2022-10-16T08:35:50;3.87;;;3.00;;
25950;SDS011;13748;52.240;6.002;2022-10-16T08:38:20;4.37;;;3.07;;
25950;SDS011;13748;52.240;6.002;2022-10-16T08:40:49;7.03;;;2.90;;
25950;SDS011;13748;52.240;6.002;2022-10-16T08:43:31;3.43;;;2.80;;
25950;SDS011;13748;52.240;6.002;2022-10-16T08:49:05;5.27;;;3.33;;
25950;SDS011;13748;52.240;6.002;2022-10-16T08:51:36;6.30;;;3.13;;
25950;SDS011;13748;52.240;6.002;2022-10-16T08:56:49;7.33;;;3.63;;
25950;SDS011;13748;52.240;6.002;2022-10-16T08:59:16;7.73;;;3.87;;
25950;SDS011;13748;52.240;6.002;2022-10-16T09:01:45;5.63;;;3.60;;
25950;SDS011;13748;52.240;6.002;2022-10-16T09:15:29;11.63;;;3.50;;
25950;SDS011;13748;52.240;6.002;2022-10-16T09:20:49;9.37;;;3.50;;
25950;SDS011;13748;52.240;6.002;2022-10-16T09:23:31;9.97;;;3.60;;
25950;SDS011;13748;52.240;6.002;2022-10-16T09:26:03;7.83;;;3.93;;
25950;SDS011;13748;52.240;6.002;2022-10-16T09:28:35;7.25;;;3.75;;
25950;SDS011;13748;52.240;6.002;2022-10-16T09:31:02;6.30;;;3.10;;
25950;SDS011;13748;52.240;6.002;2022-10-16T09:33:30;8.17;;;3.33;;
25950;SDS011;13748;52.240;6.002;2022-10-16T09:36:02;6.28;;;2.70;;
25950;SDS011;13748;52.240;6.002;2022-10-16T09:38:33;8.85;;;2.97;;
25950;SDS011;13748;52.240;6.002;2022-10-16T09:41:03;5.88;;;2.92;;
25950;SDS011;13748;52.240;6.002;2022-10-16T09:46:21;8.88;;;3.25;;
25950;SDS011;13748;52.240;6.002;2022-10-16T09:49:00;8.85;;;2.95;;
25950;SDS011;13748;52.240;6.002;2022-10-16T09:51:44;10.52;;;2.67;;
25950;SDS011;13748;52.240;6.002;2022-10-16T09:54:15;5.95;;;2.92;;
25950;SDS011;13748;52.240;6.002;2022-10-16T09:56:47;10.85;;;2.88;;
25950;SDS011;13748;52.240;6.002;2022-10-16T09:59:20;6.90;;;2.83;;
25950;SDS011;13748;52.240;6.002;2022-10-16T10:01:53;11.05;;;2.63;;
25950;SDS011;13748;52.240;6.002;2022-10-16T10:04:22;11.52;;;2.65;;
25950;SDS011;13748;52.240;6.002;2022-10-16T10:06:51;10.43;;;2.42;;
25950;SDS011;13748;52.240;6.002;2022-10-16T10:09:30;10.50;;;2.80;;
25950;SDS011;13748;52.240;6.002;2022-10-16T10:12:04;11.10;;;2.75;;
25950;SDS011;13748;52.240;6.002;2022-10-16T10:19:54;7.50;;;2.15;;
25950;SDS011;13748;52.240;6.002;2022-10-16T10:22:40;10.73;;;2.72;;
25950;SDS011;13748;52.240;6.002;2022-10-16T10:33:27;15.63;;;3.08;;
25950;SDS011;13748;52.240;6.002;2022-10-16T10:41:56;14.82;;;3.10;;
25950;SDS011;13748;52.240;6.002;2022-10-16T10:47:59;14.60;;;2.70;;
25950;SDS011;13748;52.240;6.002;2022-10-16T10:50:50;12.45;;;2.85;;
25950;SDS011;13748;52.240;6.002;2022-10-16T10:53:33;9.13;;;2.53;;
25950;SDS011;13748;52.240;6.002;2022-10-16T11:06:58;7.57;;;2.63;;
25950;SDS011;13748;52.240;6.002;2022-10-16T11:09:43;8.10;;;1.98;;
25950;SDS011;13748;52.240;6.002;2022-10-16T11:17:35;9.75;;;2.45;;
25950;SDS011;13748;52.240;6.002;2022-10-16T11:20:12;8.35;;;1.98;;
25950;SDS011;13748;52.240;6.002;2022-10-16T11:22:43;13.27;;;2.35;;
25950;SDS011;13748;52.240;6.002;2022-10-16T11:25:26;9.23;;;2.30;;
25950;SDS011;13748;52.240;6.002;2022-10-16T11:31:03;7.47;;;2.08;;
25950;SDS011;13748;52.240;6.002;2022-10-16T11:44:06;6.03;;;2.08;;
25950;SDS011;13748;52.240;6.002;2022-10-16T11:47:19;9.05;;;2.40;;
25950;SDS011;13748;52.240;6.002;2022-10-16T11:55:48;7.63;;;2.00;;
25950;SDS011;13748;52.240;6.002;2022-10-16T12:00:52;9.75;;;2.42;;
25950;SDS011;13748;52.240;6.002;2022-10-16T12:09:09;12.10;;;3.65;;
25950;SDS011;13748;52.240;6.002;2022-10-16T12:11:44;9.90;;;1.98;;
25950;SDS011;13748;52.240;6.002;2022-10-16T12:16:59;5.32;;;1.85;;
25950;SDS011;13748;52.240;6.002;2022-10-16T12:19:28;8.45;;;2.03;;
25950;SDS011;13748;52.240;6.002;2022-10-16T12:21:56;7.60;;;2.17;;
25950;SDS011;13748;52.240;6.002;2022-10-16T12:26:56;8.65;;;1.90;;
25950;SDS011;13748;52.240;6.002;2022-10-16T12:29:28;11.90;;;2.22;;
25950;SDS011;13748;52.240;6.002;2022-10-16T12:32:02;6.57;;;1.70;;
25950;SDS011;13748;52.240;6.002;2022-10-16T12:35:20;5.68;;;1.67;;
25950;SDS011;13748;52.240;6.002;2022-10-16T12:38:08;9.05;;;1.90;;
25950;SDS011;13748;52.240;6.002;2022-10-16T12:40:44;8.00;;;1.88;;
25950;SDS011;13748;52.240;6.002;2022-10-16T12:45:59;7.15;;;1.70;;
25950;SDS011;13748;52.240;6.002;2022-10-16T12:48:29;7.05;;;1.88;;
25950;SDS011;13748;52.240;6.002;2022-10-16T12:51:34;9.23;;;2.05;;
25950;SDS011;13748;52.240;6.002;2022-10-16T12:59:56;12.52;;;2.92;;
25950;SDS011;13748;52.240;6.002;2022-10-16T13:02:39;11.48;;;2.38;;
25950;SDS011;13748;52.240;6.002;2022-10-16T13:11:20;12.02;;;3.15;;
25950;SDS011;13748;52.240;6.002;2022-10-16T13:19:52;6.40;;;1.90;;
25950;SDS011;13748;52.240;6.002;2022-10-16T13:28:22;9.57;;;2.08;;
25950;SDS011;13748;52.240;6.002;2022-10-16T13:30:58;7.10;;;1.80;;
25950;SDS011;13748;52.240;6.002;2022-10-16T13:33:30;8.82;;;1.90;;
25950;SDS011;13748;52.240;6.002;2022-10-16T13:36:02;5.80;;;1.63;;
25950;SDS011;13748;52.240;6.002;2022-10-16T13:38:34;6.38;;;1.85;;
25950;SDS011;13748;52.240;6.002;2022-10-16T13:41:05;8.57;;;1.83;;
25950;SDS011;13748;52.240;6.002;2022-10-16T13:43:51;5.93;;;1.50;;
25950;SDS011;13748;52.240;6.002;2022-10-16T13:46:23;5.75;;;1.80;;
25950;SDS011;13748;52.240;6.002;2022-10-16T13:49:02;8.52;;;2.35;;
25950;SDS011;13748;52.240;6.002;2022-10-16T13:51:31;10.57;;;1.80;;
25950;SDS011;13748;52.240;6.002;2022-10-16T13:53:59;8.70;;;1.77;;
25950;SDS011;13748;52.240;6.002;2022-10-16T13:56:27;10.55;;;2.13;;
25950;SDS011;13748;52.240;6.002;2022-10-16T13:59:02;7.57;;;2.13;;
25950;SDS011;13748;52.240;6.002;2022-10-16T14:01:48;5.63;;;1.88;;
25950;SDS011;13748;52.240;6.002;2022-10-16T14:04:17;6.95;;;2.22;;
25950;SDS011;13748;52.240;6.002;2022-10-16T14:06:45;8.45;;;2.22;;
25950;SDS011;13748;52.240;6.002;2022-10-16T14:11:51;11.40;;;2.22;;
25950;SDS011;13748;52.240;6.002;2022-10-16T14:14:35;9.50;;;2.78;;
25950;SDS011;13748;52.240;6.002;2022-10-16T14:17:24;9.20;;;2.17;;
25950;SDS011;13748;52.240;6.002;2022-10-16T14:19:54;11.00;;;2.20;;
25950;SDS011;13748;52.240;6.002;2022-10-16T14:22:29;7.43;;;1.90;;
25950;SDS011;13748;52.240;6.002;2022-10-16T14:25:02;7.75;;;2.08;;
25950;SDS011;13748;52.240;6.002;2022-10-16T14:28:02;10.65;;;2.45;;
25950;SDS011;13748;52.240;6.002;2022-10-16T14:33:21;5.85;;;1.80;;
25950;SDS011;13748;52.240;6.002;2022-10-16T14:35:58;8.50;;;2.25;;
25950;SDS011;13748;52.240;6.002;2022-10-16T14:38:29;7.57;;;2.00;;
25950;SDS011;13748;52.240;6.002;2022-10-16T14:40:57;9.02;;;2.20;;
25950;SDS011;13748;52.240;6.002;2022-10-16T14:46:00;9.57;;;2.10;;
25950;SDS011;13748;52.240;6.002;2022-10-16T14:48:29;9.80;;;2.42;;
25950;SDS011;13748;52.240;6.002;2022-10-16T14:50:57;11.38;;;2.30;;
25950;SDS011;13748;52.240;6.002;2022-10-16T14:53:24;7.15;;;2.00;;
25950;SDS011;13748;52.240;6.002;2022-10-16T14:55:51;9.35;;;2.15;;
25950;SDS011;13748;52.240;6.002;2022-10-16T14:58:19;11.57;;;2.30;;
25950;SDS011;13748;52.240;6.002;2022-10-16T15:00:48;11.65;;;2.53;;
25950;SDS011;13748;52.240;6.002;2022-10-16T15:03:15;24.77;;;4.70;;
25950;SDS011;13748;52.240;6.002;2022-10-16T15:05:43;11.98;;;3.30;;
25950;SDS011;13748;52.240;6.002;2022-10-16T15:08:10;16.25;;;3.70;;
25950;SDS011;13748;52.240;6.002;2022-10-16T15:10:40;17.25;;;3.75;;
25950;SDS011;13748;52.240;6.002;2022-10-16T15:13:13;13.68;;;3.28;;
25950;SDS011;13748;52.240;6.002;2022-10-16T15:15:49;19.13;;;3.53;;
25950;SDS011;13748;52.240;6.002;2022-10-16T15:18:24;9.75;;;2.53;;
25950;SDS011;13748;52.240;6.002;2022-10-16T15:20:51;11.48;;;3.05;;
25950;SDS011;13748;52.240;6.002;2022-10-16T15:23:19;11.32;;;2.47;;
25950;SDS011;13748;52.240;6.002;2022-10-16T15:25:49;8.23;;;2.00;;
25950;SDS011;13748;52.240;6.002;2022-10-16T15:28:22;13.00;;;3.10;;
25950;SDS011;13748;52.240;6.002;2022-10-16T15:30:52;10.75;;;2.63;;
25950;SDS011;13748;52.240;6.002;2022-10-16T15:33:22;11.73;;;2.47;;
25950;SDS011;13748;52.240;6.002;2022-10-16T15:35:57;9.90;;;2.38;;
25950;SDS011;13748;52.240;6.002;2022-10-16T15:38:28;14.00;;;2.80;;
25950;SDS011;13748;52.240;6.002;2022-10-16T15:40:57;10.20;;;2.97;;
25950;SDS011;13748;52.240;6.002;2022-10-16T15:43:24;11.30;;;2.85;;
25950;SDS011;13748;52.240;6.002;2022-10-16T15:46:03;12.85;;;2.70;;
25950;SDS011;13748;52.240;6.002;2022-10-16T15:48:32;9.43;;;2.65;;
25950;SDS011;13748;52.240;6.002;2022-10-16T15:51:00;11.15;;;3.13;;
25950;SDS011;13748;52.240;6.002;2022-10-16T15:53:27;8.32;;;2.50;;
25950;SDS011;13748;52.240;6.002;2022-10-16T15:55:54;9.57;;;2.88;;
25950;SDS011;13748;52.240;6.002;2022-10-16T15:58:20;7.30;;;2.65;;
25950;SDS011;13748;52.240;6.002;2022-10-16T16:00:54;16.85;;;3.35;;
25950;SDS011;13748;52.240;6.002;2022-10-16T16:03:22;10.82;;;2.80;;
25950;SDS011;13748;52.240;6.002;2022-10-16T16:05:49;9.75;;;2.55;;
25950;SDS011;13748;52.240;6.002;2022-10-16T16:08:16;11.38;;;2.60;;
25950;SDS011;13748;52.240;6.002;2022-10-16T16:10:42;8.93;;;2.60;;
25950;SDS011;13748;52.240;6.002;2022-10-16T16:13:09;10.27;;;2.72;;
25950;SDS011;13748;52.240;6.002;2022-10-16T16:15:40;10.15;;;3.25;;
25950;SDS011;13748;52.240;6.002;2022-10-16T16:18:07;7.70;;;3.35;;
25950;SDS011;13748;52.240;6.002;2022-10-16T16:20:36;9.77;;;3.55;;
25950;SDS011;13748;52.240;6.002;2022-10-16T16:23:04;10.52;;;3.28;;
25950;SDS011;13748;52.240;6.002;2022-10-16T16:25:30;10.70;;;3.40;;
25950;SDS011;13748;52.240;6.002;2022-10-16T16:27:57;10.23;;;3.58;;
25950;SDS011;13748;52.240;6.002;2022-10-16T16:30:24;12.23;;;3.67;;
25950;SDS011;13748;52.240;6.002;2022-10-16T16:32:53;12.30;;;3.38;;
25950;SDS011;13748;52.240;6.002;2022-10-16T16:35:20;7.35;;;3.30;;
25950;SDS011;13748;52.240;6.002;2022-10-16T16:37:47;9.40;;;3.22;;
25950;SDS011;13748;52.240;6.002;2022-10-16T16:40:14;10.52;;;2.70;;
25950;SDS011;13748;52.240;6.002;2022-10-16T16:42:41;8.27;;;2.70;;
25950;SDS011;13748;52.240;6.002;2022-10-16T16:45:08;16.27;;;4.05;;
25950;SDS011;13748;52.240;6.002;2022-10-16T16:47:35;13.60;;;3.58;;
25950;SDS011;13748;52.240;6.002;2022-10-16T16:50:05;16.17;;;3.30;;
25950;SDS011;13748;52.240;6.002;2022-10-16T16:52:34;9.52;;;2.92;;
25950;SDS011;13748;52.240;6.002;2022-10-16T16:55:01;11.73;;;3.80;;
25950;SDS011;13748;52.240;6.002;2022-10-16T16:57:28;17.85;;;4.47;;
25950;SDS011;13748;52.240;6.002;2022-10-16T16:59:55;12.57;;;4.28;;
25950;SDS011;13748;52.240;6.002;2022-10-16T17:02:22;10.40;;;3.63;;
25950;SDS011;13748;52.240;6.002;2022-10-16T17:04:49;10.13;;;3.83;;
25950;SDS011;13748;52.240;6.002;2022-10-16T17:07:17;12.18;;;4.20;;
25950;SDS011;13748;52.240;6.002;2022-10-16T17:09:49;8.90;;;3.70;;
25950;SDS011;13748;52.240;6.002;2022-10-16T17:12:17;12.40;;;4.33;;
25950;SDS011;13748;52.240;6.002;2022-10-16T17:14:44;13.32;;;4.60;;
25950;SDS011;13748;52.240;6.002;2022-10-16T17:17:11;12.27;;;4.73;;
25950;SDS011;13748;52.240;6.002;2022-10-16T17:19:39;16.27;;;4.90;;
25950;SDS011;13748;52.240;6.002;2022-10-16T17:22:06;13.93;;;5.07;;
25950;SDS011;13748;52.240;6.002;2022-10-16T17:24:33;16.10;;;5.47;;
25950;SDS011;13748;52.240;6.002;2022-10-16T17:27:01;14.43;;;5.07;;
25950;SDS011;13748;52.240;6.002;2022-10-16T17:29:30;15.57;;;5.50;;
25950;SDS011;13748;52.240;6.002;2022-10-16T17:31:57;13.80;;;4.87;;
25950;SDS011;13748;52.240;6.002;2022-10-16T17:34:24;11.57;;;4.47;;
25950;SDS011;13748;52.240;6.002;2022-10-16T17:36:53;13.77;;;4.50;;
25950;SDS011;13748;52.240;6.002;2022-10-16T17:39:20;10.70;;;4.40;;
25950;SDS011;13748;52.240;6.002;2022-10-16T17:41:48;15.47;;;5.07;;
25950;SDS011;13748;52.240;6.002;2022-10-16T17:44:15;14.10;;;4.67;;
25950;SDS011;13748;52.240;6.002;2022-10-16T17:46:50;11.90;;;4.77;;